sensor_id;sensor_type;location;lat;lon;timestamp;P1;durP1;ratioP1;P2;durP2;ratioP2
20880;SDS011;10600;53.096;8.802;2023-12-14T00:00:46;12.88;;;10.02;;
20880;SDS011;10600;53.096;8.802;2023-12-14T00:01:47;15.15;;;10.43;;
20880;SDS011;10600;53.096;8.802;2023-12-14T00:02:48;14.68;;;10.50;;
20880;SDS011;10600;53.096;8.802;2023-12-14T00:03:49;12.77;;;9.18;;
20880;SDS011;10600;53.096;8.802;2023-12-14T00:04:49;14.63;;;9.40;;
20880;SDS011;10600;53.096;8.802;2023-12-14T00:05:50;12.30;;;9.30;;
20880;SDS011;10600;53.096;8.802;2023-12-14T00:06:50;13.75;;;9.75;;
20880;SDS011;10600;53.096;8.802;2023-12-14T00:07:51;13.77;;;10.27;;
20880;SDS011;10600;53.096;8.802;2023-12-14T00:08:51;15.68;;;9.48;;
20880;SDS011;10600;53.096;8.802;2023-12-14T00:09:52;14.40;;;9.18;;
20880;SDS011;10600;53.096;8.802;2023-12-14T00:10:52;14.32;;;9.48;;
20880;SDS011;10600;53.096;8.802;2023-12-14T00:11:53;17.00;;;10.40;;
20880;SDS011;10600;53.096;8.802;2023-12-14T00:12:53;13.90;;;9.93;;
20880;SDS011;10600;53.096;8.802;2023-12-14T00:13:55;16.90;;;9.93;;
20880;SDS011;10600;53.096;8.802;2023-12-14T00:14:55;13.65;;;10.10;;
20880;SDS011;10600;53.096;8.802;2023-12-14T00:15:56;16.58;;;10.00;;
20880;SDS011;10600;53.096;8.802;2023-12-14T00:16:56;15.40;;;9.90;;
20880;SDS011;10600;53.096;8.802;2023-12-14T00:17:59;14.48;;;10.23;;
20880;SDS011;10600;53.096;8.802;2023-12-14T00:18:59;15.52;;;10.30;;
20880;SDS011;10600;53.096;8.802;2023-12-14T00:20:00;17.95;;;10.63;;
20880;SDS011;10600;53.096;8.802;2023-12-14T00:21:00;17.13;;;11.02;;
20880;SDS011;10600;53.096;8.802;2023-12-14T00:22:01;15.70;;;10.88;;
20880;SDS011;10600;53.096;8.802;2023-12-14T00:23:01;18.75;;;11.85;;
20880;SDS011;10600;53.096;8.802;2023-12-14T00:24:02;14.60;;;10.50;;
20880;SDS011;10600;53.096;8.802;2023-12-14T00:25:03;17.95;;;11.27;;
20880;SDS011;10600;53.096;8.802;2023-12-14T00:26:04;17.48;;;11.23;;
20880;SDS011;10600;53.096;8.802;2023-12-14T00:27:05;16.77;;;10.25;;
20880;SDS011;10600;53.096;8.802;2023-12-14T00:28:06;17.73;;;10.68;;
20880;SDS011;10600;53.096;8.802;2023-12-14T00:29:06;15.32;;;10.30;;
20880;SDS011;10600;53.096;8.802;2023-12-14T00:30:07;21.00;;;12.05;;
20880;SDS011;10600;53.096;8.802;2023-12-14T00:31:08;15.23;;;9.18;;
20880;SDS011;10600;53.096;8.802;2023-12-14T00:32:08;16.13;;;10.35;;
20880;SDS011;10600;53.096;8.802;2023-12-14T00:33:09;16.77;;;10.73;;
20880;SDS011;10600;53.096;8.802;2023-12-14T00:34:09;17.75;;;10.95;;
20880;SDS011;10600;53.096;8.802;2023-12-14T00:35:10;19.83;;;11.55;;
20880;SDS011;10600;53.096;8.802;2023-12-14T00:36:17;15.60;;;9.75;;
20880;SDS011;10600;53.096;8.802;2023-12-14T00:37:18;16.70;;;10.40;;
20880;SDS011;10600;53.096;8.802;2023-12-14T00:38:18;15.55;;;10.07;;
20880;SDS011;10600;53.096;8.802;2023-12-14T00:39:19;16.20;;;11.25;;
20880;SDS011;10600;53.096;8.802;2023-12-14T00:40:19;16.17;;;11.23;;
20880;SDS011;10600;53.096;8.802;2023-12-14T00:41:20;16.42;;;10.25;;
20880;SDS011;10600;53.096;8.802;2023-12-14T00:42:20;13.98;;;9.73;;
20880;SDS011;10600;53.096;8.802;2023-12-14T00:43:21;16.95;;;10.18;;
20880;SDS011;10600;53.096;8.802;2023-12-14T00:44:21;17.77;;;9.93;;
20880;SDS011;10600;53.096;8.802;2023-12-14T00:45:22;18.75;;;10.38;;
20880;SDS011;10600;53.096;8.802;2023-12-14T00:46:23;14.95;;;9.73;;
20880;SDS011;10600;53.096;8.802;2023-12-14T00:47:23;16.02;;;10.80;;
20880;SDS011;10600;53.096;8.802;2023-12-14T00:48:24;16.33;;;9.45;;
20880;SDS011;10600;53.096;8.802;2023-12-14T00:49:25;14.23;;;10.35;;
20880;SDS011;10600;53.096;8.802;2023-12-14T00:50:27;15.23;;;9.23;;
20880;SDS011;10600;53.096;8.802;2023-12-14T00:51:28;13.23;;;8.90;;
20880;SDS011;10600;53.096;8.802;2023-12-14T00:52:28;14.60;;;9.05;;
20880;SDS011;10600;53.096;8.802;2023-12-14T00:53:29;15.73;;;9.93;;
20880;SDS011;10600;53.096;8.802;2023-12-14T00:54:29;16.90;;;9.90;;
20880;SDS011;10600;53.096;8.802;2023-12-14T00:55:30;13.65;;;8.80;;
20880;SDS011;10600;53.096;8.802;2023-12-14T00:56:30;15.23;;;9.40;;
20880;SDS011;10600;53.096;8.802;2023-12-14T00:57:31;14.88;;;9.77;;
20880;SDS011;10600;53.096;8.802;2023-12-14T00:58:32;15.48;;;9.30;;
20880;SDS011;10600;53.096;8.802;2023-12-14T00:59:33;14.65;;;9.57;;
20880;SDS011;10600;53.096;8.802;2023-12-14T01:00:33;13.07;;;8.82;;
20880;SDS011;10600;53.096;8.802;2023-12-14T01:01:34;12.00;;;8.10;;
20880;SDS011;10600;53.096;8.802;2023-12-14T01:02:34;13.65;;;9.25;;
20880;SDS011;10600;53.096;8.802;2023-12-14T01:03:35;13.35;;;8.93;;
20880;SDS011;10600;53.096;8.802;2023-12-14T01:04:35;14.77;;;8.70;;
20880;SDS011;10600;53.096;8.802;2023-12-14T01:05:36;14.57;;;9.02;;
20880;SDS011;10600;53.096;8.802;2023-12-14T01:06:36;12.88;;;8.60;;
20880;SDS011;10600;53.096;8.802;2023-12-14T01:07:37;15.35;;;8.45;;
20880;SDS011;10600;53.096;8.802;2023-12-14T01:08:37;13.27;;;8.60;;
20880;SDS011;10600;53.096;8.802;2023-12-14T01:09:38;12.88;;;7.97;;
20880;SDS011;10600;53.096;8.802;2023-12-14T01:10:38;12.38;;;8.55;;
20880;SDS011;10600;53.096;8.802;2023-12-14T01:11:39;13.07;;;8.05;;
20880;SDS011;10600;53.096;8.802;2023-12-14T01:12:39;12.75;;;8.55;;
20880;SDS011;10600;53.096;8.802;2023-12-14T01:13:40;12.82;;;7.78;;
20880;SDS011;10600;53.096;8.802;2023-12-14T01:14:40;14.27;;;8.43;;
20880;SDS011;10600;53.096;8.802;2023-12-14T01:15:41;13.80;;;8.73;;
20880;SDS011;10600;53.096;8.802;2023-12-14T01:16:42;10.48;;;7.40;;
20880;SDS011;10600;53.096;8.802;2023-12-14T01:17:42;11.68;;;7.28;;
20880;SDS011;10600;53.096;8.802;2023-12-14T01:18:43;13.07;;;8.25;;
20880;SDS011;10600;53.096;8.802;2023-12-14T01:19:43;15.15;;;7.68;;
20880;SDS011;10600;53.096;8.802;2023-12-14T01:20:44;10.40;;;7.22;;
20880;SDS011;10600;53.096;8.802;2023-12-14T01:21:44;12.15;;;7.97;;
20880;SDS011;10600;53.096;8.802;2023-12-14T01:22:45;10.65;;;6.55;;
20880;SDS011;10600;53.096;8.802;2023-12-14T01:23:45;10.38;;;6.72;;
20880;SDS011;10600;53.096;8.802;2023-12-14T01:24:46;11.40;;;7.07;;
20880;SDS011;10600;53.096;8.802;2023-12-14T01:25:46;9.60;;;7.07;;
20880;SDS011;10600;53.096;8.802;2023-12-14T01:26:47;10.63;;;6.93;;
20880;SDS011;10600;53.096;8.802;2023-12-14T01:27:47;11.40;;;7.25;;
20880;SDS011;10600;53.096;8.802;2023-12-14T01:28:48;9.07;;;6.60;;
20880;SDS011;10600;53.096;8.802;2023-12-14T01:29:48;10.68;;;6.57;;
20880;SDS011;10600;53.096;8.802;2023-12-14T01:30:49;10.65;;;6.93;;
20880;SDS011;10600;53.096;8.802;2023-12-14T01:31:49;11.23;;;6.80;;
20880;SDS011;10600;53.096;8.802;2023-12-14T01:32:50;10.55;;;6.88;;
20880;SDS011;10600;53.096;8.802;2023-12-14T01:33:51;10.70;;;6.35;;
20880;SDS011;10600;53.096;8.802;2023-12-14T01:34:52;10.07;;;6.57;;
20880;SDS011;10600;53.096;8.802;2023-12-14T01:35:52;11.07;;;6.25;;
20880;SDS011;10600;53.096;8.802;2023-12-14T01:36:53;9.90;;;6.15;;
20880;SDS011;10600;53.096;8.802;2023-12-14T01:37:53;10.20;;;6.53;;
20880;SDS011;10600;53.096;8.802;2023-12-14T01:38:54;9.50;;;6.20;;
20880;SDS011;10600;53.096;8.802;2023-12-14T01:39:55;13.98;;;7.55;;
20880;SDS011;10600;53.096;8.802;2023-12-14T01:40:55;10.18;;;5.85;;
20880;SDS011;10600;53.096;8.802;2023-12-14T01:41:56;12.23;;;6.95;;
20880;SDS011;10600;53.096;8.802;2023-12-14T01:43:06;11.13;;;6.18;;
20880;SDS011;10600;53.096;8.802;2023-12-14T01:44:08;8.93;;;6.45;;
20880;SDS011;10600;53.096;8.802;2023-12-14T01:45:09;9.50;;;5.90;;
20880;SDS011;10600;53.096;8.802;2023-12-14T01:46:10;8.93;;;5.95;;
20880;SDS011;10600;53.096;8.802;2023-12-14T01:47:10;9.40;;;5.75;;
20880;SDS011;10600;53.096;8.802;2023-12-14T01:48:11;11.15;;;6.45;;
20880;SDS011;10600;53.096;8.802;2023-12-14T01:49:12;8.38;;;6.03;;
20880;SDS011;10600;53.096;8.802;2023-12-14T01:50:13;9.15;;;5.90;;
20880;SDS011;10600;53.096;8.802;2023-12-14T01:51:13;10.82;;;6.00;;
20880;SDS011;10600;53.096;8.802;2023-12-14T01:52:14;9.70;;;5.57;;
20880;SDS011;10600;53.096;8.802;2023-12-14T01:53:14;11.07;;;6.25;;
20880;SDS011;10600;53.096;8.802;2023-12-14T01:54:15;10.25;;;6.07;;
20880;SDS011;10600;53.096;8.802;2023-12-14T01:55:15;8.18;;;5.72;;
20880;SDS011;10600;53.096;8.802;2023-12-14T01:56:16;8.20;;;5.57;;
20880;SDS011;10600;53.096;8.802;2023-12-14T01:57:16;9.98;;;5.93;;
20880;SDS011;10600;53.096;8.802;2023-12-14T01:58:17;9.35;;;5.18;;
20880;SDS011;10600;53.096;8.802;2023-12-14T01:59:17;9.65;;;6.65;;
20880;SDS011;10600;53.096;8.802;2023-12-14T02:01:54;10.23;;;5.65;;
20880;SDS011;10600;53.096;8.802;2023-12-14T02:02:56;8.00;;;4.95;;
20880;SDS011;10600;53.096;8.802;2023-12-14T02:03:57;8.20;;;5.30;;
20880;SDS011;10600;53.096;8.802;2023-12-14T02:04:57;9.15;;;5.72;;
20880;SDS011;10600;53.096;8.802;2023-12-14T02:05:58;8.70;;;5.60;;
20880;SDS011;10600;53.096;8.802;2023-12-14T02:06:58;13.57;;;5.25;;
20880;SDS011;10600;53.096;8.802;2023-12-14T02:08:00;9.80;;;4.95;;
20880;SDS011;10600;53.096;8.802;2023-12-14T02:09:00;9.25;;;5.40;;
20880;SDS011;10600;53.096;8.802;2023-12-14T02:10:01;11.00;;;6.15;;
20880;SDS011;10600;53.096;8.802;2023-12-14T02:11:02;10.18;;;5.20;;
20880;SDS011;10600;53.096;8.802;2023-12-14T02:12:02;8.38;;;5.43;;
20880;SDS011;10600;53.096;8.802;2023-12-14T02:13:04;11.77;;;5.82;;
20880;SDS011;10600;53.096;8.802;2023-12-14T02:14:05;10.02;;;5.30;;
20880;SDS011;10600;53.096;8.802;2023-12-14T02:15:06;10.32;;;5.45;;
20880;SDS011;10600;53.096;8.802;2023-12-14T02:16:07;9.10;;;5.00;;
20880;SDS011;10600;53.096;8.802;2023-12-14T02:17:09;11.02;;;5.63;;
20880;SDS011;10600;53.096;8.802;2023-12-14T02:18:09;10.10;;;6.18;;
20880;SDS011;10600;53.096;8.802;2023-12-14T02:19:10;11.82;;;6.05;;
20880;SDS011;10600;53.096;8.802;2023-12-14T02:20:10;13.77;;;6.63;;
20880;SDS011;10600;53.096;8.802;2023-12-14T02:21:11;10.23;;;5.32;;
20880;SDS011;10600;53.096;8.802;2023-12-14T02:22:11;12.38;;;6.20;;
20880;SDS011;10600;53.096;8.802;2023-12-14T02:23:12;9.70;;;5.30;;
20880;SDS011;10600;53.096;8.802;2023-12-14T02:24:13;9.88;;;5.28;;
20880;SDS011;10600;53.096;8.802;2023-12-14T02:25:14;13.65;;;5.97;;
20880;SDS011;10600;53.096;8.802;2023-12-14T02:26:14;10.77;;;5.90;;
20880;SDS011;10600;53.096;8.802;2023-12-14T02:27:15;9.55;;;5.45;;
20880;SDS011;10600;53.096;8.802;2023-12-14T02:28:15;9.50;;;5.75;;
20880;SDS011;10600;53.096;8.802;2023-12-14T02:29:16;8.60;;;5.63;;
20880;SDS011;10600;53.096;8.802;2023-12-14T02:30:17;9.02;;;5.20;;
20880;SDS011;10600;53.096;8.802;2023-12-14T02:31:18;8.93;;;5.35;;
20880;SDS011;10600;53.096;8.802;2023-12-14T02:32:19;9.25;;;5.25;;
20880;SDS011;10600;53.096;8.802;2023-12-14T02:33:20;8.77;;;5.13;;
20880;SDS011;10600;53.096;8.802;2023-12-14T02:34:20;6.88;;;4.53;;
20880;SDS011;10600;53.096;8.802;2023-12-14T02:35:22;10.15;;;5.72;;
20880;SDS011;10600;53.096;8.802;2023-12-14T02:36:22;10.70;;;5.50;;
20880;SDS011;10600;53.096;8.802;2023-12-14T02:37:23;8.88;;;5.10;;
20880;SDS011;10600;53.096;8.802;2023-12-14T02:38:23;10.45;;;5.68;;
20880;SDS011;10600;53.096;8.802;2023-12-14T02:39:24;10.73;;;6.22;;
20880;SDS011;10600;53.096;8.802;2023-12-14T02:40:24;12.68;;;6.72;;
20880;SDS011;10600;53.096;8.802;2023-12-14T02:41:25;11.95;;;6.05;;
20880;SDS011;10600;53.096;8.802;2023-12-14T02:42:26;14.40;;;6.03;;
20880;SDS011;10600;53.096;8.802;2023-12-14T02:43:26;12.00;;;5.88;;
20880;SDS011;10600;53.096;8.802;2023-12-14T02:44:27;10.27;;;6.43;;
20880;SDS011;10600;53.096;8.802;2023-12-14T02:45:27;11.43;;;6.57;;
20880;SDS011;10600;53.096;8.802;2023-12-14T02:46:28;14.48;;;6.85;;
20880;SDS011;10600;53.096;8.802;2023-12-14T02:47:29;13.65;;;6.68;;
20880;SDS011;10600;53.096;8.802;2023-12-14T02:48:30;13.48;;;6.07;;
20880;SDS011;10600;53.096;8.802;2023-12-14T02:49:30;14.43;;;7.43;;
20880;SDS011;10600;53.096;8.802;2023-12-14T02:50:32;16.50;;;7.45;;
20880;SDS011;10600;53.096;8.802;2023-12-14T02:51:32;12.60;;;6.57;;
20880;SDS011;10600;53.096;8.802;2023-12-14T02:52:33;12.52;;;7.03;;
20880;SDS011;10600;53.096;8.802;2023-12-14T02:53:33;11.18;;;6.70;;
20880;SDS011;10600;53.096;8.802;2023-12-14T02:54:34;18.08;;;7.05;;
20880;SDS011;10600;53.096;8.802;2023-12-14T02:55:34;14.23;;;7.10;;
20880;SDS011;10600;53.096;8.802;2023-12-14T02:56:35;14.57;;;6.75;;
20880;SDS011;10600;53.096;8.802;2023-12-14T02:57:35;15.02;;;6.88;;
20880;SDS011;10600;53.096;8.802;2023-12-14T02:58:36;17.02;;;7.13;;
20880;SDS011;10600;53.096;8.802;2023-12-14T02:59:37;14.73;;;6.93;;
20880;SDS011;10600;53.096;8.802;2023-12-14T03:00:37;17.02;;;7.28;;
20880;SDS011;10600;53.096;8.802;2023-12-14T03:01:38;15.25;;;7.03;;
20880;SDS011;10600;53.096;8.802;2023-12-14T03:02:39;17.70;;;7.32;;
20880;SDS011;10600;53.096;8.802;2023-12-14T03:03:39;17.80;;;7.28;;
20880;SDS011;10600;53.096;8.802;2023-12-14T03:04:40;17.40;;;6.68;;
20880;SDS011;10600;53.096;8.802;2023-12-14T03:05:41;13.95;;;6.22;;
20880;SDS011;10600;53.096;8.802;2023-12-14T03:06:41;14.10;;;7.32;;
20880;SDS011;10600;53.096;8.802;2023-12-14T03:07:42;14.10;;;7.05;;
20880;SDS011;10600;53.096;8.802;2023-12-14T03:08:42;13.85;;;6.15;;
20880;SDS011;10600;53.096;8.802;2023-12-14T03:09:43;14.55;;;6.85;;
20880;SDS011;10600;53.096;8.802;2023-12-14T03:10:44;11.73;;;6.05;;
20880;SDS011;10600;53.096;8.802;2023-12-14T03:11:45;15.18;;;7.18;;
20880;SDS011;10600;53.096;8.802;2023-12-14T03:12:45;12.30;;;5.72;;
20880;SDS011;10600;53.096;8.802;2023-12-14T03:13:46;14.73;;;7.20;;
20880;SDS011;10600;53.096;8.802;2023-12-14T03:14:46;14.65;;;6.20;;
20880;SDS011;10600;53.096;8.802;2023-12-14T03:15:47;12.63;;;6.88;;
20880;SDS011;10600;53.096;8.802;2023-12-14T03:16:49;13.50;;;6.63;;
20880;SDS011;10600;53.096;8.802;2023-12-14T03:17:49;12.98;;;7.25;;
20880;SDS011;10600;53.096;8.802;2023-12-14T03:18:50;9.98;;;5.68;;
20880;SDS011;10600;53.096;8.802;2023-12-14T03:19:52;12.43;;;6.65;;
20880;SDS011;10600;53.096;8.802;2023-12-14T03:20:52;15.90;;;6.63;;
20880;SDS011;10600;53.096;8.802;2023-12-14T03:21:53;14.95;;;6.75;;
20880;SDS011;10600;53.096;8.802;2023-12-14T03:22:54;13.20;;;6.18;;
20880;SDS011;10600;53.096;8.802;2023-12-14T03:23:54;12.60;;;6.32;;
20880;SDS011;10600;53.096;8.802;2023-12-14T03:24:55;12.77;;;6.15;;
20880;SDS011;10600;53.096;8.802;2023-12-14T03:25:55;15.20;;;6.20;;
20880;SDS011;10600;53.096;8.802;2023-12-14T03:26:56;14.25;;;6.13;;
20880;SDS011;10600;53.096;8.802;2023-12-14T03:27:57;14.07;;;6.60;;
20880;SDS011;10600;53.096;8.802;2023-12-14T03:28:57;12.68;;;6.20;;
20880;SDS011;10600;53.096;8.802;2023-12-14T03:29:58;11.90;;;6.15;;
20880;SDS011;10600;53.096;8.802;2023-12-14T03:30:58;10.57;;;6.43;;
20880;SDS011;10600;53.096;8.802;2023-12-14T03:31:59;14.43;;;6.63;;
20880;SDS011;10600;53.096;8.802;2023-12-14T03:33:00;12.70;;;6.38;;
20880;SDS011;10600;53.096;8.802;2023-12-14T03:34:01;14.82;;;6.97;;
20880;SDS011;10600;53.096;8.802;2023-12-14T03:35:02;13.02;;;5.82;;
20880;SDS011;10600;53.096;8.802;2023-12-14T03:36:03;12.75;;;5.93;;
20880;SDS011;10600;53.096;8.802;2023-12-14T03:37:04;11.90;;;6.10;;
20880;SDS011;10600;53.096;8.802;2023-12-14T03:38:05;11.02;;;5.90;;
20880;SDS011;10600;53.096;8.802;2023-12-14T03:39:05;13.20;;;6.47;;
20880;SDS011;10600;53.096;8.802;2023-12-14T03:40:06;12.70;;;6.70;;
20880;SDS011;10600;53.096;8.802;2023-12-14T03:41:07;15.60;;;6.00;;
20880;SDS011;10600;53.096;8.802;2023-12-14T03:42:07;11.95;;;6.15;;
20880;SDS011;10600;53.096;8.802;2023-12-14T03:43:08;13.98;;;6.10;;
20880;SDS011;10600;53.096;8.802;2023-12-14T03:44:08;16.55;;;6.60;;
20880;SDS011;10600;53.096;8.802;2023-12-14T03:45:09;12.60;;;6.45;;
20880;SDS011;10600;53.096;8.802;2023-12-14T03:46:10;13.15;;;6.15;;
20880;SDS011;10600;53.096;8.802;2023-12-14T03:47:11;11.55;;;5.82;;
20880;SDS011;10600;53.096;8.802;2023-12-14T03:48:14;13.55;;;6.50;;
20880;SDS011;10600;53.096;8.802;2023-12-14T03:49:14;18.17;;;6.82;;
20880;SDS011;10600;53.096;8.802;2023-12-14T03:50:15;13.55;;;5.60;;
20880;SDS011;10600;53.096;8.802;2023-12-14T03:51:19;12.68;;;6.38;;
20880;SDS011;10600;53.096;8.802;2023-12-14T03:52:19;11.93;;;6.43;;
20880;SDS011;10600;53.096;8.802;2023-12-14T03:53:20;10.65;;;5.95;;
20880;SDS011;10600;53.096;8.802;2023-12-14T03:54:20;13.52;;;6.28;;
20880;SDS011;10600;53.096;8.802;2023-12-14T03:55:21;16.42;;;8.05;;
20880;SDS011;10600;53.096;8.802;2023-12-14T03:56:21;17.05;;;6.88;;
20880;SDS011;10600;53.096;8.802;2023-12-14T03:57:22;12.40;;;6.00;;
20880;SDS011;10600;53.096;8.802;2023-12-14T03:58:22;12.20;;;5.85;;
20880;SDS011;10600;53.096;8.802;2023-12-14T03:59:23;12.40;;;5.70;;
20880;SDS011;10600;53.096;8.802;2023-12-14T04:00:24;12.93;;;6.30;;
20880;SDS011;10600;53.096;8.802;2023-12-14T04:01:24;12.90;;;6.20;;
20880;SDS011;10600;53.096;8.802;2023-12-14T04:02:25;9.95;;;5.60;;
20880;SDS011;10600;53.096;8.802;2023-12-14T04:03:25;15.85;;;6.70;;
20880;SDS011;10600;53.096;8.802;2023-12-14T04:04:26;12.32;;;5.38;;
20880;SDS011;10600;53.096;8.802;2023-12-14T04:05:26;10.90;;;5.80;;
20880;SDS011;10600;53.096;8.802;2023-12-14T04:06:27;12.30;;;5.40;;
20880;SDS011;10600;53.096;8.802;2023-12-14T04:07:27;10.23;;;5.60;;
20880;SDS011;10600;53.096;8.802;2023-12-14T04:08:28;9.75;;;4.93;;
20880;SDS011;10600;53.096;8.802;2023-12-14T04:09:28;10.25;;;5.55;;
20880;SDS011;10600;53.096;8.802;2023-12-14T04:10:29;13.50;;;5.38;;
20880;SDS011;10600;53.096;8.802;2023-12-14T04:11:29;14.95;;;5.85;;
20880;SDS011;10600;53.096;8.802;2023-12-14T04:12:30;8.73;;;4.82;;
20880;SDS011;10600;53.096;8.802;2023-12-14T04:13:30;14.95;;;6.57;;
20880;SDS011;10600;53.096;8.802;2023-12-14T04:14:31;11.27;;;6.07;;
20880;SDS011;10600;53.096;8.802;2023-12-14T04:15:31;12.18;;;5.82;;
20880;SDS011;10600;53.096;8.802;2023-12-14T04:16:32;11.82;;;5.22;;
20880;SDS011;10600;53.096;8.802;2023-12-14T04:17:33;13.50;;;7.10;;
20880;SDS011;10600;53.096;8.802;2023-12-14T04:18:34;14.27;;;5.47;;
20880;SDS011;10600;53.096;8.802;2023-12-14T04:19:34;12.93;;;5.45;;
20880;SDS011;10600;53.096;8.802;2023-12-14T04:20:35;9.20;;;5.35;;
20880;SDS011;10600;53.096;8.802;2023-12-14T04:21:36;12.00;;;5.53;;
20880;SDS011;10600;53.096;8.802;2023-12-14T04:22:37;12.07;;;5.63;;
20880;SDS011;10600;53.096;8.802;2023-12-14T04:23:38;14.82;;;5.55;;
20880;SDS011;10600;53.096;8.802;2023-12-14T04:24:38;8.95;;;4.95;;
20880;SDS011;10600;53.096;8.802;2023-12-14T04:25:39;7.63;;;4.63;;
20880;SDS011;10600;53.096;8.802;2023-12-14T04:26:39;13.65;;;5.65;;
20880;SDS011;10600;53.096;8.802;2023-12-14T04:27:40;11.10;;;5.53;;
20880;SDS011;10600;53.096;8.802;2023-12-14T04:28:40;10.00;;;6.07;;
20880;SDS011;10600;53.096;8.802;2023-12-14T04:29:43;10.05;;;5.57;;
20880;SDS011;10600;53.096;8.802;2023-12-14T04:30:44;11.65;;;5.50;;
20880;SDS011;10600;53.096;8.802;2023-12-14T04:31:44;11.73;;;6.10;;
20880;SDS011;10600;53.096;8.802;2023-12-14T04:32:45;13.57;;;5.45;;
20880;SDS011;10600;53.096;8.802;2023-12-14T04:33:47;11.20;;;5.78;;
20880;SDS011;10600;53.096;8.802;2023-12-14T04:34:48;11.90;;;5.40;;
20880;SDS011;10600;53.096;8.802;2023-12-14T04:35:48;8.68;;;5.53;;
20880;SDS011;10600;53.096;8.802;2023-12-14T04:36:49;13.63;;;5.40;;
20880;SDS011;10600;53.096;8.802;2023-12-14T04:37:50;8.85;;;4.75;;
20880;SDS011;10600;53.096;8.802;2023-12-14T04:38:50;10.20;;;5.07;;
20880;SDS011;10600;53.096;8.802;2023-12-14T04:39:51;10.93;;;5.65;;
20880;SDS011;10600;53.096;8.802;2023-12-14T04:40:51;11.73;;;5.13;;
20880;SDS011;10600;53.096;8.802;2023-12-14T04:41:52;10.80;;;4.55;;
20880;SDS011;10600;53.096;8.802;2023-12-14T04:42:53;8.02;;;4.05;;
20880;SDS011;10600;53.096;8.802;2023-12-14T04:43:54;8.00;;;4.68;;
20880;SDS011;10600;53.096;8.802;2023-12-14T04:44:54;8.93;;;4.57;;
20880;SDS011;10600;53.096;8.802;2023-12-14T04:45:55;9.85;;;4.80;;
20880;SDS011;10600;53.096;8.802;2023-12-14T04:46:56;9.48;;;4.93;;
20880;SDS011;10600;53.096;8.802;2023-12-14T04:47:56;11.85;;;4.75;;
20880;SDS011;10600;53.096;8.802;2023-12-14T04:48:56;8.63;;;4.72;;
20880;SDS011;10600;53.096;8.802;2023-12-14T04:49:57;7.13;;;4.25;;
20880;SDS011;10600;53.096;8.802;2023-12-14T04:50:58;8.40;;;4.95;;
20880;SDS011;10600;53.096;8.802;2023-12-14T04:51:58;11.05;;;5.40;;
20880;SDS011;10600;53.096;8.802;2023-12-14T04:52:59;10.38;;;4.85;;
20880;SDS011;10600;53.096;8.802;2023-12-14T04:53:59;9.55;;;4.97;;
20880;SDS011;10600;53.096;8.802;2023-12-14T04:55:00;8.63;;;5.20;;
20880;SDS011;10600;53.096;8.802;2023-12-14T04:56:01;9.55;;;5.13;;
20880;SDS011;10600;53.096;8.802;2023-12-14T04:57:02;7.25;;;4.97;;
20880;SDS011;10600;53.096;8.802;2023-12-14T04:58:03;7.20;;;4.82;;
20880;SDS011;10600;53.096;8.802;2023-12-14T04:59:04;8.48;;;5.00;;
20880;SDS011;10600;53.096;8.802;2023-12-14T05:00:05;8.82;;;5.25;;
20880;SDS011;10600;53.096;8.802;2023-12-14T05:01:06;11.43;;;5.47;;
20880;SDS011;10600;53.096;8.802;2023-12-14T05:02:07;12.15;;;5.43;;
20880;SDS011;10600;53.096;8.802;2023-12-14T05:03:07;12.35;;;5.32;;
20880;SDS011;10600;53.096;8.802;2023-12-14T05:04:08;9.45;;;5.32;;
20880;SDS011;10600;53.096;8.802;2023-12-14T05:05:08;10.35;;;5.30;;
20880;SDS011;10600;53.096;8.802;2023-12-14T05:06:09;12.68;;;5.63;;
20880;SDS011;10600;53.096;8.802;2023-12-14T05:07:09;9.93;;;5.75;;
20880;SDS011;10600;53.096;8.802;2023-12-14T05:08:10;11.38;;;5.32;;
20880;SDS011;10600;53.096;8.802;2023-12-14T05:09:11;10.63;;;5.47;;
20880;SDS011;10600;53.096;8.802;2023-12-14T05:10:14;11.35;;;5.80;;
20880;SDS011;10600;53.096;8.802;2023-12-14T05:11:15;9.85;;;5.93;;
20880;SDS011;10600;53.096;8.802;2023-12-14T05:12:15;10.77;;;7.18;;
20880;SDS011;10600;53.096;8.802;2023-12-14T05:13:16;10.45;;;5.80;;
20880;SDS011;10600;53.096;8.802;2023-12-14T05:14:16;9.50;;;5.70;;
20880;SDS011;10600;53.096;8.802;2023-12-14T05:15:17;12.60;;;5.93;;
20880;SDS011;10600;53.096;8.802;2023-12-14T05:16:17;10.52;;;5.75;;
20880;SDS011;10600;53.096;8.802;2023-12-14T05:17:18;9.60;;;5.30;;
20880;SDS011;10600;53.096;8.802;2023-12-14T05:18:19;11.38;;;5.93;;
20880;SDS011;10600;53.096;8.802;2023-12-14T05:19:19;10.15;;;5.75;;
20880;SDS011;10600;53.096;8.802;2023-12-14T05:20:20;10.57;;;6.00;;
20880;SDS011;10600;53.096;8.802;2023-12-14T05:21:20;10.82;;;5.68;;
20880;SDS011;10600;53.096;8.802;2023-12-14T05:22:21;11.93;;;5.75;;
20880;SDS011;10600;53.096;8.802;2023-12-14T05:23:21;10.20;;;5.78;;
20880;SDS011;10600;53.096;8.802;2023-12-14T05:24:23;10.55;;;5.80;;
20880;SDS011;10600;53.096;8.802;2023-12-14T05:25:24;9.35;;;5.18;;
20880;SDS011;10600;53.096;8.802;2023-12-14T05:26:25;13.13;;;6.93;;
20880;SDS011;10600;53.096;8.802;2023-12-14T05:27:26;13.80;;;6.05;;
20880;SDS011;10600;53.096;8.802;2023-12-14T05:28:26;13.95;;;6.22;;
20880;SDS011;10600;53.096;8.802;2023-12-14T05:29:27;10.85;;;5.85;;
20880;SDS011;10600;53.096;8.802;2023-12-14T05:30:28;11.15;;;5.80;;
20880;SDS011;10600;53.096;8.802;2023-12-14T05:31:30;9.93;;;4.97;;
20880;SDS011;10600;53.096;8.802;2023-12-14T05:32:30;9.77;;;5.50;;
20880;SDS011;10600;53.096;8.802;2023-12-14T05:33:31;11.38;;;5.75;;
20880;SDS011;10600;53.096;8.802;2023-12-14T05:34:34;10.45;;;5.78;;
20880;SDS011;10600;53.096;8.802;2023-12-14T05:35:35;11.60;;;6.40;;
20880;SDS011;10600;53.096;8.802;2023-12-14T05:36:35;12.77;;;6.13;;
20880;SDS011;10600;53.096;8.802;2023-12-14T05:37:36;13.23;;;5.50;;
20880;SDS011;10600;53.096;8.802;2023-12-14T05:38:38;10.68;;;5.75;;
20880;SDS011;10600;53.096;8.802;2023-12-14T05:39:42;14.98;;;6.18;;
20880;SDS011;10600;53.096;8.802;2023-12-14T05:40:45;12.40;;;6.38;;
20880;SDS011;10600;53.096;8.802;2023-12-14T05:41:46;16.10;;;7.18;;
20880;SDS011;10600;53.096;8.802;2023-12-14T05:42:46;13.80;;;6.00;;
20880;SDS011;10600;53.096;8.802;2023-12-14T05:43:47;11.30;;;5.57;;
20880;SDS011;10600;53.096;8.802;2023-12-14T05:44:47;10.80;;;5.40;;
20880;SDS011;10600;53.096;8.802;2023-12-14T05:45:48;10.15;;;5.72;;
20880;SDS011;10600;53.096;8.802;2023-12-14T05:46:49;11.52;;;6.03;;
20880;SDS011;10600;53.096;8.802;2023-12-14T05:47:50;14.32;;;6.53;;
20880;SDS011;10600;53.096;8.802;2023-12-14T05:48:51;11.95;;;5.93;;
20880;SDS011;10600;53.096;8.802;2023-12-14T05:49:51;11.13;;;5.75;;
20880;SDS011;10600;53.096;8.802;2023-12-14T05:50:52;14.98;;;6.07;;
20880;SDS011;10600;53.096;8.802;2023-12-14T05:51:58;12.45;;;6.15;;
20880;SDS011;10600;53.096;8.802;2023-12-14T05:52:59;8.95;;;5.97;;
20880;SDS011;10600;53.096;8.802;2023-12-14T05:54:00;10.15;;;6.13;;
20880;SDS011;10600;53.096;8.802;2023-12-14T05:55:01;12.30;;;6.15;;
20880;SDS011;10600;53.096;8.802;2023-12-14T05:56:02;13.73;;;5.32;;
20880;SDS011;10600;53.096;8.802;2023-12-14T05:57:02;11.77;;;5.78;;
20880;SDS011;10600;53.096;8.802;2023-12-14T05:58:03;10.80;;;5.63;;
20880;SDS011;10600;53.096;8.802;2023-12-14T05:59:06;14.73;;;6.32;;
20880;SDS011;10600;53.096;8.802;2023-12-14T06:00:07;12.40;;;5.50;;
20880;SDS011;10600;53.096;8.802;2023-12-14T06:01:08;13.05;;;5.32;;
20880;SDS011;10600;53.096;8.802;2023-12-14T06:02:12;12.48;;;5.38;;
20880;SDS011;10600;53.096;8.802;2023-12-14T06:03:12;10.98;;;4.90;;